sensor_id;sensor_type;location;lat;lon;timestamp;temperature;humidity
30134;DHT22;16946;49.984;10.672;2022-08-06T00:00:17;18.10;99.90
30134;DHT22;16946;49.984;10.672;2022-08-06T00:00:48;18.00;99.90
30134;DHT22;16946;49.984;10.672;2022-08-06T00:01:18;18.00;99.90
30134;DHT22;16946;49.984;10.672;2022-08-06T00:01:49;17.90;99.90
30134;DHT22;16946;49.984;10.672;2022-08-06T00:02:22;18.00;99.90
30134;DHT22;16946;49.984;10.672;2022-08-06T00:02:53;18.00;99.90
30134;DHT22;16946;49.984;10.672;2022-08-06T00:03:24;18.00;99.90
30134;DHT22;16946;49.984;10.672;2022-08-06T00:03:55;18.00;99.90
30134;DHT22;16946;49.984;10.672;2022-08-06T00:04:27;18.00;99.90
30134;DHT22;16946;49.984;10.672;2022-08-06T00:04:59;18.00;99.90
30134;DHT22;16946;49.984;10.672;2022-08-06T00:05:30;18.10;99.90
30134;DHT22;16946;49.984;10.672;2022-08-06T00:06:00;18.10;99.90
30134;DHT22;16946;49.984;10.672;2022-08-06T00:06:31;18.10;99.90
30134;DHT22;16946;49.984;10.672;2022-08-06T00:07:02;18.10;99.90
30134;DHT22;16946;49.984;10.672;2022-08-06T00:07:34;18.10;99.90
30134;DHT22;16946;49.984;10.672;2022-08-06T00:08:05;18.10;99.90
30134;DHT22;16946;49.984;10.672;2022-08-06T00:08:35;18.20;99.90
30134;DHT22;16946;49.984;10.672;2022-08-06T00:09:06;18.30;99.90
30134;DHT22;16946;49.984;10.672;2022-08-06T00:09:37;18.40;99.90
30134;DHT22;16946;49.984;10.672;2022-08-06T00:10:08;18.40;99.90
30134;DHT22;16946;49.984;10.672;2022-08-06T00:10:38;18.50;99.90
30134;DHT22;16946;49.984;10.672;2022-08-06T00:11:09;18.50;99.90
30134;DHT22;16946;49.984;10.672;2022-08-06T00:11:40;18.50;99.90
30134;DHT22;16946;49.984;10.672;2022-08-06T00:12:10;18.50;99.90
30134;DHT22;16946;49.984;10.672;2022-08-06T00:12:41;18.50;99.90
30134;DHT22;16946;49.984;10.672;2022-08-06T00:13:12;18.50;99.90
30134;DHT22;16946;49.984;10.672;2022-08-06T00:13:42;18.60;99.90
30134;DHT22;16946;49.984;10.672;2022-08-06T00:14:13;18.60;99.90
30134;DHT22;16946;49.984;10.672;2022-08-06T00:14:44;18.60;99.90
30134;DHT22;16946;49.984;10.672;2022-08-06T00:15:15;18.60;99.90
30134;DHT22;16946;49.984;10.672;2022-08-06T00:15:48;18.70;99.90
30134;DHT22;16946;49.984;10.672;2022-08-06T00:16:19;18.70;99.90
30134;DHT22;16946;49.984;10.672;2022-08-06T00:16:49;18.70;99.90
30134;DHT22;16946;49.984;10.672;2022-08-06T00:17:20;18.70;99.90
30134;DHT22;16946;49.984;10.672;2022-08-06T00:17:52;18.70;99.90
30134;DHT22;16946;49.984;10.672;2022-08-06T00:18:23;18.70;99.90
30134;DHT22;16946;49.984;10.672;2022-08-06T00:18:53;18.60;99.90
30134;DHT22;16946;49.984;10.672;2022-08-06T00:19:24;18.60;99.90
30134;DHT22;16946;49.984;10.672;2022-08-06T00:19:55;18.70;99.90
30134;DHT22;16946;49.984;10.672;2022-08-06T00:20:26;18.70;99.90
30134;DHT22;16946;49.984;10.672;2022-08-06T00:20:57;18.70;99.90
30134;DHT22;16946;49.984;10.672;2022-08-06T00:21:27;18.60;99.90
30134;DHT22;16946;49.984;10.672;2022-08-06T00:21:58;18.60;99.90
30134;DHT22;16946;49.984;10.672;2022-08-06T00:22:28;18.50;99.90
30134;DHT22;16946;49.984;10.672;2022-08-06T00:22:59;18.50;99.90
30134;DHT22;16946;49.984;10.672;2022-08-06T00:23:30;18.50;99.90
30134;DHT22;16946;49.984;10.672;2022-08-06T00:24:00;18.50;99.90
30134;DHT22;16946;49.984;10.672;2022-08-06T00:24:31;18.50;99.90
30134;DHT22;16946;49.984;10.672;2022-08-06T00:25:02;18.50;99.90
30134;DHT22;16946;49.984;10.672;2022-08-06T00:25:32;18.60;99.90
30134;DHT22;16946;49.984;10.672;2022-08-06T00:26:03;18.60;99.90
30134;DHT22;16946;49.984;10.672;2022-08-06T00:26:33;18.60;99.90
30134;DHT22;16946;49.984;10.672;2022-08-06T00:27:04;18.60;99.90
30134;DHT22;16946;49.984;10.672;2022-08-06T00:27:35;18.60;99.90
30134;DHT22;16946;49.984;10.672;2022-08-06T00:28:05;18.70;99.90
30134;DHT22;16946;49.984;10.672;2022-08-06T00:28:36;18.70;99.90
30134;DHT22;16946;49.984;10.672;2022-08-06T00:29:07;18.70;99.90
30134;DHT22;16946;49.984;10.672;2022-08-06T00:29:37;18.70;99.90
30134;DHT22;16946;49.984;10.672;2022-08-06T00:30:09;18.70;99.90
30134;DHT22;16946;49.984;10.672;2022-08-06T00:30:39;18.70;99.90
30134;DHT22;16946;49.984;10.672;2022-08-06T00:31:10;18.80;99.90
30134;DHT22;16946;49.984;10.672;2022-08-06T00:31:41;18.80;99.90
30134;DHT22;16946;49.984;10.672;2022-08-06T00:32:11;18.80;99.90
30134;DHT22;16946;49.984;10.672;2022-08-06T00:32:42;18.80;99.90
30134;DHT22;16946;49.984;10.672;2022-08-06T00:33:12;18.70;99.90
30134;DHT22;16946;49.984;10.672;2022-08-06T00:33:43;18.60;99.90
30134;DHT22;16946;49.984;10.672;2022-08-06T00:34:13;18.60;99.90
30134;DHT22;16946;49.984;10.672;2022-08-06T00:34:44;18.50;99.90
30134;DHT22;16946;49.984;10.672;2022-08-06T00:35:15;18.50;99.90
30134;DHT22;16946;49.984;10.672;2022-08-06T00:35:45;18.50;99.90
30134;DHT22;16946;49.984;10.672;2022-08-06T00:36:16;18.50;99.90
30134;DHT22;16946;49.984;10.672;2022-08-06T00:36:47;18.50;99.90
30134;DHT22;16946;49.984;10.672;2022-08-06T00:37:17;18.50;99.90
30134;DHT22;16946;49.984;10.672;2022-08-06T00:37:48;18.50;99.90
30134;DHT22;16946;49.984;10.672;2022-08-06T00:38:18;18.50;99.90
30134;DHT22;16946;49.984;10.672;2022-08-06T00:38:49;18.60;99.90
30134;DHT22;16946;49.984;10.672;2022-08-06T00:39:20;18.60;99.90
30134;DHT22;16946;49.984;10.672;2022-08-06T00:39:50;18.60;99.90
30134;DHT22;16946;49.984;10.672;2022-08-06T00:40:21;18.60;99.90
30134;DHT22;16946;49.984;10.672;2022-08-06T00:40:53;18.60;99.90
30134;DHT22;16946;49.984;10.672;2022-08-06T00:41:24;18.50;99.90
30134;DHT22;16946;49.984;10.672;2022-08-06T00:41:55;18.50;99.90
30134;DHT22;16946;49.984;10.672;2022-08-06T00:42:26;18.40;99.90
30134;DHT22;16946;49.984;10.672;2022-08-06T00:42:59;18.40;99.90
30134;DHT22;16946;49.984;10.672;2022-08-06T00:43:29;18.40;99.90
30134;DHT22;16946;49.984;10.672;2022-08-06T00:44:01;18.40;99.90
30134;DHT22;16946;49.984;10.672;2022-08-06T00:44:31;18.40;99.90
30134;DHT22;16946;49.984;10.672;2022-08-06T00:45:02;18.40;99.90
30134;DHT22;16946;49.984;10.672;2022-08-06T00:45:35;18.40;99.90
30134;DHT22;16946;49.984;10.672;2022-08-06T00:46:05;18.40;99.90
30134;DHT22;16946;49.984;10.672;2022-08-06T00:46:36;18.50;99.90
30134;DHT22;16946;49.984;10.672;2022-08-06T00:47:06;18.50;99.90
30134;DHT22;16946;49.984;10.672;2022-08-06T00:47:37;18.50;99.90
30134;DHT22;16946;49.984;10.672;2022-08-06T00:48:08;18.50;99.90
30134;DHT22;16946;49.984;10.672;2022-08-06T00:48:38;18.50;99.90
30134;DHT22;16946;49.984;10.672;2022-08-06T00:49:09;18.50;99.90
30134;DHT22;16946;49.984;10.672;2022-08-06T00:49:40;18.50;99.90
30134;DHT22;16946;49.984;10.672;2022-08-06T00:50:11;18.50;99.90
30134;DHT22;16946;49.984;10.672;2022-08-06T00:50:41;18.50;99.90
30134;DHT22;16946;49.984;10.672;2022-08-06T00:51:12;18.50;99.90
30134;DHT22;16946;49.984;10.672;2022-08-06T00:51:42;18.40;99.90
30134;DHT22;16946;49.984;10.672;2022-08-06T00:52:13;18.40;99.90
30134;DHT22;16946;49.984;10.672;2022-08-06T00:52:44;18.40;99.90
30134;DHT22;16946;49.984;10.672;2022-08-06T00:53:16;18.40;99.90
30134;DHT22;16946;49.984;10.672;2022-08-06T00:53:47;18.30;99.90
30134;DHT22;16946;49.984;10.672;2022-08-06T00:54:18;18.30;99.90
30134;DHT22;16946;49.984;10.672;2022-08-06T00:54:49;18.30;99.90
30134;DHT22;16946;49.984;10.672;2022-08-06T00:55:20;18.20;99.90
30134;DHT22;16946;49.984;10.672;2022-08-06T00:55:50;18.10;99.90
30134;DHT22;16946;49.984;10.672;2022-08-06T00:56:21;18.10;99.90
30134;DHT22;16946;49.984;10.672;2022-08-06T00:56:51;18.10;99.90
30134;DHT22;16946;49.984;10.672;2022-08-06T00:57:22;18.00;99.90
30134;DHT22;16946;49.984;10.672;2022-08-06T00:57:53;18.00;99.90
30134;DHT22;16946;49.984;10.672;2022-08-06T00:58:23;18.00;99.90
30134;DHT22;16946;49.984;10.672;2022-08-06T00:58:54;18.00;99.90
30134;DHT22;16946;49.984;10.672;2022-08-06T00:59:25;18.10;99.90
30134;DHT22;16946;49.984;10.672;2022-08-06T00:59:56;18.10;99.90
30134;DHT22;16946;49.984;10.672;2022-08-06T01:00:26;18.10;99.90
30134;DHT22;16946;49.984;10.672;2022-08-06T01:00:57;18.10;99.90
30134;DHT22;16946;49.984;10.672;2022-08-06T01:01:27;18.10;99.90
30134;DHT22;16946;49.984;10.672;2022-08-06T01:01:58;18.10;99.90
30134;DHT22;16946;49.984;10.672;2022-08-06T01:02:29;18.10;99.90
30134;DHT22;16946;49.984;10.672;2022-08-06T01:03:00;18.10;99.90
30134;DHT22;16946;49.984;10.672;2022-08-06T01:03:30;18.10;99.90
30134;DHT22;16946;49.984;10.672;2022-08-06T01:04:01;18.20;99.90
30134;DHT22;16946;49.984;10.672;2022-08-06T01:04:32;18.20;99.90
30134;DHT22;16946;49.984;10.672;2022-08-06T01:05:03;18.20;99.90
30134;DHT22;16946;49.984;10.672;2022-08-06T01:05:34;18.20;99.90
30134;DHT22;16946;49.984;10.672;2022-08-06T01:06:04;18.10;99.90
30134;DHT22;16946;49.984;10.672;2022-08-06T01:06:35;18.10;99.90
30134;DHT22;16946;49.984;10.672;2022-08-06T01:07:06;18.10;99.90
30134;DHT22;16946;49.984;10.672;2022-08-06T01:07:36;18.10;99.90
30134;DHT22;16946;49.984;10.672;2022-08-06T01:08:07;18.10;99.90
30134;DHT22;16946;49.984;10.672;2022-08-06T01:08:38;18.20;99.90
30134;DHT22;16946;49.984;10.672;2022-08-06T01:09:09;18.20;99.90
30134;DHT22;16946;49.984;10.672;2022-08-06T01:09:39;18.20;99.90
30134;DHT22;16946;49.984;10.672;2022-08-06T01:10:10;18.20;99.90
30134;DHT22;16946;49.984;10.672;2022-08-06T01:10:41;18.20;99.90
30134;DHT22;16946;49.984;10.672;2022-08-06T01:11:12;18.20;99.90
30134;DHT22;16946;49.984;10.672;2022-08-06T01:11:43;18.20;99.90
30134;DHT22;16946;49.984;10.672;2022-08-06T01:12:13;18.30;99.90
30134;DHT22;16946;49.984;10.672;2022-08-06T01:12:44;18.20;99.90
30134;DHT22;16946;49.984;10.672;2022-08-06T01:13:14;18.20;99.90
30134;DHT22;16946;49.984;10.672;2022-08-06T01:13:45;18.20;99.90
30134;DHT22;16946;49.984;10.672;2022-08-06T01:14:16;18.20;99.90
30134;DHT22;16946;49.984;10.672;2022-08-06T01:14:46;18.20;99.90
30134;DHT22;16946;49.984;10.672;2022-08-06T01:15:17;18.20;99.90
30134;DHT22;16946;49.984;10.672;2022-08-06T01:15:58;18.20;99.90
30134;DHT22;16946;49.984;10.672;2022-08-06T01:16:39;18.10;99.90
30134;DHT22;16946;49.984;10.672;2022-08-06T01:17:21;18.00;99.90
30134;DHT22;16946;49.984;10.672;2022-08-06T01:17:59;17.90;99.90
30134;DHT22;16946;49.984;10.672;2022-08-06T01:18:35;17.80;99.90
30134;DHT22;16946;49.984;10.672;2022-08-06T01:20:34;17.60;99.90
30134;DHT22;16946;49.984;10.672;2022-08-06T01:23:17;17.70;99.90
30134;DHT22;16946;49.984;10.672;2022-08-06T01:25:37;17.60;99.90
30134;DHT22;16946;49.984;10.672;2022-08-06T01:27:33;17.40;99.90
30134;DHT22;16946;49.984;10.672;2022-08-06T01:28:31;17.40;99.90
30134;DHT22;16946;49.984;10.672;2022-08-06T01:29:50;17.30;99.90
30134;DHT22;16946;49.984;10.672;2022-08-06T01:30:23;17.30;99.90
30134;DHT22;16946;49.984;10.672;2022-08-06T01:31:08;17.30;99.90
30134;DHT22;16946;49.984;10.672;2022-08-06T01:31:52;17.20;99.90
30134;DHT22;16946;49.984;10.672;2022-08-06T01:32:34;17.20;99.90
30134;DHT22;16946;49.984;10.672;2022-08-06T01:33:26;17.10;99.90
30134;DHT22;16946;49.984;10.672;2022-08-06T01:34:05;17.00;99.90
30134;DHT22;16946;49.984;10.672;2022-08-06T01:34:49;17.00;99.90
30134;DHT22;16946;49.984;10.672;2022-08-06T01:35:29;16.90;99.90
30134;DHT22;16946;49.984;10.672;2022-08-06T01:36:05;16.80;99.90
30134;DHT22;16946;49.984;10.672;2022-08-06T01:36:42;16.80;99.90
30134;DHT22;16946;49.984;10.672;2022-08-06T01:37:23;16.70;99.90
30134;DHT22;16946;49.984;10.672;2022-08-06T01:38:14;16.70;99.90
30134;DHT22;16946;49.984;10.672;2022-08-06T01:38:50;16.80;99.90
30134;DHT22;16946;49.984;10.672;2022-08-06T01:39:22;16.80;99.90
30134;DHT22;16946;49.984;10.672;2022-08-06T01:40:04;16.90;99.90
30134;DHT22;16946;49.984;10.672;2022-08-06T01:40:38;16.80;99.90
30134;DHT22;16946;49.984;10.672;2022-08-06T01:41:13;16.90;99.90
30134;DHT22;16946;49.984;10.672;2022-08-06T01:42:05;16.90;99.90
30134;DHT22;16946;49.984;10.672;2022-08-06T01:42:36;17.00;99.90
30134;DHT22;16946;49.984;10.672;2022-08-06T01:43:09;17.00;99.90
30134;DHT22;16946;49.984;10.672;2022-08-06T01:43:42;17.00;99.90
30134;DHT22;16946;49.984;10.672;2022-08-06T01:44:15;17.00;99.90
30134;DHT22;16946;49.984;10.672;2022-08-06T01:44:49;16.90;99.90
30134;DHT22;16946;49.984;10.672;2022-08-06T01:45:23;16.90;99.90
30134;DHT22;16946;49.984;10.672;2022-08-06T01:45:57;16.90;99.90
30134;DHT22;16946;49.984;10.672;2022-08-06T01:46:30;16.90;99.90
30134;DHT22;16946;49.984;10.672;2022-08-06T01:47:05;16.90;99.90
30134;DHT22;16946;49.984;10.672;2022-08-06T01:47:39;16.90;99.90
30134;DHT22;16946;49.984;10.672;2022-08-06T01:48:17;16.80;99.90
30134;DHT22;16946;49.984;10.672;2022-08-06T01:48:48;16.90;99.90
30134;DHT22;16946;49.984;10.672;2022-08-06T01:49:24;16.80;99.90
30134;DHT22;16946;49.984;10.672;2022-08-06T01:49:57;16.80;99.90
30134;DHT22;16946;49.984;10.672;2022-08-06T01:50:36;16.80;99.90
30134;DHT22;16946;49.984;10.672;2022-08-06T01:51:09;16.90;99.90
30134;DHT22;16946;49.984;10.672;2022-08-06T01:51:40;16.90;99.90
30134;DHT22;16946;49.984;10.672;2022-08-06T01:52:13;16.90;99.90
30134;DHT22;16946;49.984;10.672;2022-08-06T01:52:45;16.90;99.90
30134;DHT22;16946;49.984;10.672;2022-08-06T01:53:29;17.00;99.90
30134;DHT22;16946;49.984;10.672;2022-08-06T01:54:04;17.00;99.90
30134;DHT22;16946;49.984;10.672;2022-08-06T01:54:40;16.90;99.90
30134;DHT22;16946;49.984;10.672;2022-08-06T01:55:15;16.90;99.90
30134;DHT22;16946;49.984;10.672;2022-08-06T01:55:49;16.90;99.90
30134;DHT22;16946;49.984;10.672;2022-08-06T01:56:22;16.80;99.90
30134;DHT22;16946;49.984;10.672;2022-08-06T01:56:56;16.70;99.90
30134;DHT22;16946;49.984;10.672;2022-08-06T01:57:28;16.60;99.90
30134;DHT22;16946;49.984;10.672;2022-08-06T01:58:01;16.50;99.90
30134;DHT22;16946;49.984;10.672;2022-08-06T01:58:36;16.40;99.90
30134;DHT22;16946;49.984;10.672;2022-08-06T01:59:08;16.40;99.90
30134;DHT22;16946;49.984;10.672;2022-08-06T01:59:44;16.40;99.90
30134;DHT22;16946;49.984;10.672;2022-08-06T02:00:17;16.40;99.90
30134;DHT22;16946;49.984;10.672;2022-08-06T02:00:48;16.40;99.90
30134;DHT22;16946;49.984;10.672;2022-08-06T02:01:22;16.30;99.90
30134;DHT22;16946;49.984;10.672;2022-08-06T02:01:55;16.30;99.90
30134;DHT22;16946;49.984;10.672;2022-08-06T02:02:28;16.30;99.90
30134;DHT22;16946;49.984;10.672;2022-08-06T02:03:01;16.30;99.90
30134;DHT22;16946;49.984;10.672;2022-08-06T02:03:42;16.30;99.90
30134;DHT22;16946;49.984;10.672;2022-08-06T02:04:16;16.30;99.90
30134;DHT22;16946;49.984;10.672;2022-08-06T02:04:50;16.40;99.90
30134;DHT22;16946;49.984;10.672;2022-08-06T02:05:22;16.50;99.90
30134;DHT22;16946;49.984;10.672;2022-08-06T02:05:55;16.50;99.90
30134;DHT22;16946;49.984;10.672;2022-08-06T02:06:32;16.50;99.90
30134;DHT22;16946;49.984;10.672;2022-08-06T02:07:06;16.50;99.90
30134;DHT22;16946;49.984;10.672;2022-08-06T02:07:40;16.50;99.90
30134;DHT22;16946;49.984;10.672;2022-08-06T02:08:13;16.60;99.90
30134;DHT22;16946;49.984;10.672;2022-08-06T02:08:46;16.60;99.90
30134;DHT22;16946;49.984;10.672;2022-08-06T02:09:19;16.60;99.90
30134;DHT22;16946;49.984;10.672;2022-08-06T02:09:52;16.60;99.90
30134;DHT22;16946;49.984;10.672;2022-08-06T02:10:24;16.60;99.90
30134;DHT22;16946;49.984;10.672;2022-08-06T02:10:57;16.70;99.90
30134;DHT22;16946;49.984;10.672;2022-08-06T02:11:28;16.60;99.90
30134;DHT22;16946;49.984;10.672;2022-08-06T02:12:06;16.60;99.90
30134;DHT22;16946;49.984;10.672;2022-08-06T02:12:39;16.60;99.90
30134;DHT22;16946;49.984;10.672;2022-08-06T02:13:13;16.60;99.90
30134;DHT22;16946;49.984;10.672;2022-08-06T02:13:45;16.50;99.90
30134;DHT22;16946;49.984;10.672;2022-08-06T02:14:17;16.50;99.90
30134;DHT22;16946;49.984;10.672;2022-08-06T02:14:53;16.40;99.90
30134;DHT22;16946;49.984;10.672;2022-08-06T02:15:27;16.30;99.90
30134;DHT22;16946;49.984;10.672;2022-08-06T02:15:58;16.40;99.90
30134;DHT22;16946;49.984;10.672;2022-08-06T02:16:35;16.30;99.90
30134;DHT22;16946;49.984;10.672;2022-08-06T02:17:07;16.30;99.90
30134;DHT22;16946;49.984;10.672;2022-08-06T02:17:42;16.30;99.90
30134;DHT22;16946;49.984;10.672;2022-08-06T02:18:17;16.20;99.90
30134;DHT22;16946;49.984;10.672;2022-08-06T02:18:49;16.20;99.90
30134;DHT22;16946;49.984;10.672;2022-08-06T02:19:21;16.30;99.90
30134;DHT22;16946;49.984;10.672;2022-08-06T02:19:54;16.30;99.90
30134;DHT22;16946;49.984;10.672;2022-08-06T02:20:49;16.30;99.90
30134;DHT22;16946;49.984;10.672;2022-08-06T02:21:20;16.30;99.90
30134;DHT22;16946;49.984;10.672;2022-08-06T02:21:54;16.30;99.90
30134;DHT22;16946;49.984;10.672;2022-08-06T02:22:27;16.30;99.90
30134;DHT22;16946;49.984;10.672;2022-08-06T02:22:59;16.20;99.90
30134;DHT22;16946;49.984;10.672;2022-08-06T02:23:32;16.10;99.90
30134;DHT22;16946;49.984;10.672;2022-08-06T02:24:06;16.00;99.90
30134;DHT22;16946;49.984;10.672;2022-08-06T02:24:38;16.00;99.90
30134;DHT22;16946;49.984;10.672;2022-08-06T02:25:11;15.90;99.90
30134;DHT22;16946;49.984;10.672;2022-08-06T02:25:43;15.90;99.90
30134;DHT22;16946;49.984;10.672;2022-08-06T02:26:15;16.00;99.90
30134;DHT22;16946;49.984;10.672;2022-08-06T02:26:47;16.00;99.90
30134;DHT22;16946;49.984;10.672;2022-08-06T02:27:19;15.90;99.90
30134;DHT22;16946;49.984;10.672;2022-08-06T02:27:52;15.90;99.90
30134;DHT22;16946;49.984;10.672;2022-08-06T02:28:24;15.90;99.90
30134;DHT22;16946;49.984;10.672;2022-08-06T02:28:58;15.90;99.90
30134;DHT22;16946;49.984;10.672;2022-08-06T02:29:29;15.90;99.90
30134;DHT22;16946;49.984;10.672;2022-08-06T02:30:01;15.90;99.90
30134;DHT22;16946;49.984;10.672;2022-08-06T02:30:38;16.00;99.90
30134;DHT22;16946;49.984;10.672;2022-08-06T02:31:09;16.10;99.90
30134;DHT22;16946;49.984;10.672;2022-08-06T02:31:41;16.10;99.90
30134;DHT22;16946;49.984;10.672;2022-08-06T02:32:12;16.10;99.90
30134;DHT22;16946;49.984;10.672;2022-08-06T02:32:44;16.00;99.90
30134;DHT22;16946;49.984;10.672;2022-08-06T02:33:16;16.00;99.90
30134;DHT22;16946;49.984;10.672;2022-08-06T02:33:47;16.00;99.90
30134;DHT22;16946;49.984;10.672;2022-08-06T02:34:21;16.00;99.90
30134;DHT22;16946;49.984;10.672;2022-08-06T02:34:53;16.00;99.90
30134;DHT22;16946;49.984;10.672;2022-08-06T02:35:25;16.00;99.90
30134;DHT22;16946;49.984;10.672;2022-08-06T02:36:04;15.90;99.90
30134;DHT22;16946;49.984;10.672;2022-08-06T02:36:43;15.90;99.90
30134;DHT22;16946;49.984;10.672;2022-08-06T02:37:21;15.80;99.90
30134;DHT22;16946;49.984;10.672;2022-08-06T02:38:02;15.80;99.90
30134;DHT22;16946;49.984;10.672;2022-08-06T02:38:45;15.90;99.90
30134;DHT22;16946;49.984;10.672;2022-08-06T02:39:33;15.90;99.90
30134;DHT22;16946;49.984;10.672;2022-08-06T02:40:14;16.00;99.90
30134;DHT22;16946;49.984;10.672;2022-08-06T02:40:55;15.90;99.90
30134;DHT22;16946;49.984;10.672;2022-08-06T02:41:59;16.00;99.90
30134;DHT22;16946;49.984;10.672;2022-08-06T02:43:16;16.00;99.90
30134;DHT22;16946;49.984;10.672;2022-08-06T02:43:33;16.00;99.90
30134;DHT22;16946;49.984;10.672;2022-08-06T02:44:30;16.20;99.90
30134;DHT22;16946;49.984;10.672;2022-08-06T02:45:09;16.30;99.90
30134;DHT22;16946;49.984;10.672;2022-08-06T02:46:21;16.40;99.90
30134;DHT22;16946;49.984;10.672;2022-08-06T02:47:00;16.50;99.90
30134;DHT22;16946;49.984;10.672;2022-08-06T02:48:02;16.40;99.90
30134;DHT22;16946;49.984;10.672;2022-08-06T02:48:59;16.30;99.90
30134;DHT22;16946;49.984;10.672;2022-08-06T02:49:34;16.30;99.90
30134;DHT22;16946;49.984;10.672;2022-08-06T02:50:08;16.30;99.90
30134;DHT22;16946;49.984;10.672;2022-08-06T02:50:44;16.30;99.90
30134;DHT22;16946;49.984;10.672;2022-08-06T02:51:19;16.30;99.90
30134;DHT22;16946;49.984;10.672;2022-08-06T02:51:55;16.40;99.90
30134;DHT22;16946;49.984;10.672;2022-08-06T02:52:35;16.40;99.90
30134;DHT22;16946;49.984;10.672;2022-08-06T02:53:25;16.40;99.90
30134;DHT22;16946;49.984;10.672;2022-08-06T02:54:09;16.50;99.90
30134;DHT22;16946;49.984;10.672;2022-08-06T02:54:47;16.60;99.90
30134;DHT22;16946;49.984;10.672;2022-08-06T02:55:21;16.60;99.90
30134;DHT22;16946;49.984;10.672;2022-08-06T02:55:56;16.60;99.90
30134;DHT22;16946;49.984;10.672;2022-08-06T02:56:31;16.60;99.90
30134;DHT22;16946;49.984;10.672;2022-08-06T02:57:03;16.60;99.90
30134;DHT22;16946;49.984;10.672;2022-08-06T02:57:41;16.60;99.90
30134;DHT22;16946;49.984;10.672;2022-08-06T02:58:23;16.60;99.90
30134;DHT22;16946;49.984;10.672;2022-08-06T02:58:57;16.60;99.90
30134;DHT22;16946;49.984;10.672;2022-08-06T02:59:31;16.60;99.90
30134;DHT22;16946;49.984;10.672;2022-08-06T03:00:07;16.60;99.90
30134;DHT22;16946;49.984;10.672;2022-08-06T03:00:41;16.50;99.90
30134;DHT22;16946;49.984;10.672;2022-08-06T03:01:20;16.40;99.90
30134;DHT22;16946;49.984;10.672;2022-08-06T03:01:58;16.30;99.90
30134;DHT22;16946;49.984;10.672;2022-08-06T03:02:30;16.30;99.90
30134;DHT22;16946;49.984;10.672;2022-08-06T03:03:02;16.20;99.90
30134;DHT22;16946;49.984;10.672;2022-08-06T03:03:35;16.20;99.90
30134;DHT22;16946;49.984;10.672;2022-08-06T03:04:09;16.20;99.90
30134;DHT22;16946;49.984;10.672;2022-08-06T03:04:43;16.20;99.90
30134;DHT22;16946;49.984;10.672;2022-08-06T03:05:18;16.20;99.90
30134;DHT22;16946;49.984;10.672;2022-08-06T03:05:51;16.30;99.90
30134;DHT22;16946;49.984;10.672;2022-08-06T03:06:26;16.30;99.90
30134;DHT22;16946;49.984;10.672;2022-08-06T03:07:00;16.30;99.90
30134;DHT22;16946;49.984;10.672;2022-08-06T03:07:33;16.40;99.90
30134;DHT22;16946;49.984;10.672;2022-08-06T03:08:06;16.40;99.90
30134;DHT22;16946;49.984;10.672;2022-08-06T03:08:37;16.40;99.90
30134;DHT22;16946;49.984;10.672;2022-08-06T03:09:09;16.40;99.90
30134;DHT22;16946;49.984;10.672;2022-08-06T03:09:41;16.40;99.90
30134;DHT22;16946;49.984;10.672;2022-08-06T03:10:18;16.40;99.90
30134;DHT22;16946;49.984;10.672;2022-08-06T03:10:50;16.30;99.90
30134;DHT22;16946;49.984;10.672;2022-08-06T03:11:23;16.20;99.90
30134;DHT22;16946;49.984;10.672;2022-08-06T03:11:56;16.10;99.90
30134;DHT22;16946;49.984;10.672;2022-08-06T03:12:28;16.00;99.90
30134;DHT22;16946;49.984;10.672;2022-08-06T03:12:59;15.90;99.90
30134;DHT22;16946;49.984;10.672;2022-08-06T03:13:31;15.90;99.90
30134;DHT22;16946;49.984;10.672;2022-08-06T03:14:04;16.00;99.90
30134;DHT22;16946;49.984;10.672;2022-08-06T03:14:38;15.90;99.90
30134;DHT22;16946;49.984;10.672;2022-08-06T03:15:10;15.90;99.90
30134;DHT22;16946;49.984;10.672;2022-08-06T03:15:42;15.90;99.90
30134;DHT22;16946;49.984;10.672;2022-08-06T03:16:14;15.90;99.90
30134;DHT22;16946;49.984;10.672;2022-08-06T03:16:46;15.80;99.90
30134;DHT22;16946;49.984;10.672;2022-08-06T03:17:18;15.80;99.90
30134;DHT22;16946;49.984;10.672;2022-08-06T03:17:50;15.80;99.90
30134;DHT22;16946;49.984;10.672;2022-08-06T03:18:27;15.90;99.90
30134;DHT22;16946;49.984;10.672;2022-08-06T03:18:58;15.90;99.90
30134;DHT22;16946;49.984;10.672;2022-08-06T03:19:29;15.90;99.90
30134;DHT22;16946;49.984;10.672;2022-08-06T03:20:02;15.90;99.90
30134;DHT22;16946;49.984;10.672;2022-08-06T03:20:34;15.90;99.90
30134;DHT22;16946;49.984;10.672;2022-08-06T03:21:06;15.90;99.90
30134;DHT22;16946;49.984;10.672;2022-08-06T03:21:39;15.90;99.90
30134;DHT22;16946;49.984;10.672;2022-08-06T03:22:11;15.90;99.90
30134;DHT22;16946;49.984;10.672;2022-08-06T03:22:44;16.00;99.90
30134;DHT22;16946;49.984;10.672;2022-08-06T03:23:16;16.00;99.90
30134;DHT22;16946;49.984;10.672;2022-08-06T03:23:48;16.00;99.90
30134;DHT22;16946;49.984;10.672;2022-08-06T03:24:20;16.00;99.90
30134;DHT22;16946;49.984;10.672;2022-08-06T03:24:52;16.10;99.90
30134;DHT22;16946;49.984;10.672;2022-08-06T03:25:23;16.10;99.90
30134;DHT22;16946;49.984;10.672;2022-08-06T03:25:56;16.10;99.90
30134;DHT22;16946;49.984;10.672;2022-08-06T03:26:29;16.10;99.90
30134;DHT22;16946;49.984;10.672;2022-08-06T03:27:02;16.20;99.90
30134;DHT22;16946;49.984;10.672;2022-08-06T03:27:33;16.30;99.90
30134;DHT22;16946;49.984;10.672;2022-08-06T03:28:05;16.30;99.90
30134;DHT22;16946;49.984;10.672;2022-08-06T03:28:36;16.30;99.90
30134;DHT22;16946;49.984;10.672;2022-08-06T03:29:07;16.30;99.90
30134;DHT22;16946;49.984;10.672;2022-08-06T03:29:39;16.30;99.90
30134;DHT22;16946;49.984;10.672;2022-08-06T03:30:16;16.30;99.90
30134;DHT22;16946;49.984;10.672;2022-08-06T03:30:47;16.40;99.90
30134;DHT22;16946;49.984;10.672;2022-08-06T03:31:17;16.40;99.90
30134;DHT22;16946;49.984;10.672;2022-08-06T03:31:49;16.40;99.90
30134;DHT22;16946;49.984;10.672;2022-08-06T03:32:20;16.40;99.90
30134;DHT22;16946;49.984;10.672;2022-08-06T03:32:51;16.40;99.90
30134;DHT22;16946;49.984;10.672;2022-08-06T03:33:22;16.40;99.90
30134;DHT22;16946;49.984;10.672;2022-08-06T03:33:54;16.40;99.90
30134;DHT22;16946;49.984;10.672;2022-08-06T03:34:26;16.30;99.90
30134;DHT22;16946;49.984;10.672;2022-08-06T03:34:59;16.30;99.90
30134;DHT22;16946;49.984;10.672;2022-08-06T03:35:30;16.30;99.90
30134;DHT22;16946;49.984;10.672;2022-08-06T03:36:03;16.20;99.90
30134;DHT22;16946;49.984;10.672;2022-08-06T03:36:36;16.20;99.90